KBLH/BLH METAR and TAF weather

Enter ICAO airport designator
Station Type Date Time Source
KBLH METAR 2020/07/06 07:52 UTC NOAA

KBLH 060752Z AUTO 00000KT 10SM CLR 32/03 A2972 RMK AO2 SLP054 T03170028 404500272 $


Station Type Date Time Source
KBLH Decoded METAR 2020/07/06 07:52 UTC NOAA

BLYTHE AIRPORT, CA, United States (KBLH) 33-37N 114-43W 119M
Jul 06, 2020 - 03:52 AM EDT / 2020.07.06 0752 UTC
Wind: Calm:0
Visibility: 10 mile(s):0
Sky conditions: clear
Temperature: 89.1 F (31.7 C)
Dew Point: 37.0 F (2.8 C)
Relative Humidity: 15%
Pressure (altimeter): 29.72 in. Hg (1006 hPa)
ob: KBLH 060752Z AUTO 00000KT 10SM CLR 32/03 A2972 RMK AO2 SLP054 T03170028 404500272
cycle: 8

Station Type Date Time Source
KBLH TAF 2020/07/06 06:34 UTC NOAA

TAF KBLH 060532Z 0606/0706 25010KT P6SM SKC
FM061200 VRB04KT P6SM SKC
FM061800 18010G20KT P6SM SKC
FM070000 23012KT P6SM SKC

Example: see airport list